createdAt,value
2018-08-03T00:00:56.671Z,952.73
2018-08-03T00:01:56.567Z,952.68
2018-08-03T00:02:56.569Z,952.73
2018-08-03T00:03:56.388Z,952.70
2018-08-03T00:04:56.300Z,952.68
2018-08-03T00:05:56.236Z,952.71
2018-08-03T00:06:56.126Z,952.71
2018-08-03T00:07:56.037Z,952.65
2018-08-03T00:08:55.950Z,952.64
2018-08-03T00:09:55.969Z,952.69
2018-08-03T00:10:55.797Z,952.67
2018-08-03T00:11:55.684Z,952.62
2018-08-03T00:12:55.597Z,952.64
2018-08-03T00:13:55.509Z,952.66
2018-08-03T00:14:55.423Z,952.66
2018-08-03T00:15:55.359Z,952.67
2018-08-03T00:16:55.342Z,952.65
2018-08-03T00:17:55.159Z,952.63
2018-08-03T00:18:55.072Z,952.62
2018-08-03T00:19:54.985Z,952.62
2018-08-03T00:20:54.919Z,952.64
2018-08-03T00:21:54.812Z,952.63
2018-08-03T00:22:54.718Z,952.60
2018-08-03T00:23:54.725Z,952.61
2018-08-03T00:24:54.544Z,952.62
2018-08-03T00:25:54.481Z,952.64
2018-08-03T00:26:54.369Z,952.62
2018-08-03T00:27:54.283Z,952.64
2018-08-03T00:28:54.192Z,952.64
2018-08-03T00:29:54.106Z,952.68
2018-08-03T00:30:54.113Z,952.63
2018-08-03T00:31:53.956Z,952.66
2018-08-03T00:32:53.841Z,952.68
2018-08-03T00:33:53.752Z,952.74
2018-08-03T00:34:53.667Z,952.71
2018-08-03T00:35:53.613Z,952.74
2018-08-03T00:36:53.490Z,952.73
2018-08-03T00:37:53.497Z,952.75
2018-08-03T00:38:53.315Z,952.77
2018-08-03T00:39:53.224Z,952.74
2018-08-03T00:40:53.139Z,952.73
2018-08-03T00:41:53.075Z,952.71
2018-08-03T00:42:52.964Z,952.69
2018-08-03T00:43:52.874Z,952.67
2018-08-03T00:44:52.880Z,952.68
2018-08-03T00:45:52.696Z,952.65
2018-08-03T00:46:52.632Z,952.63
2018-08-03T00:47:52.522Z,952.63
2018-08-03T00:48:52.437Z,952.63
2018-08-03T00:49:52.349Z,952.66
2018-08-03T00:50:52.259Z,952.66
2018-08-03T00:51:52.194Z,952.67
2018-08-03T00:52:52.085Z,952.65
2018-08-03T00:53:51.996Z,952.63
2018-08-03T00:54:51.909Z,952.67
2018-08-03T00:55:51.818Z,952.63
2018-08-03T00:56:51.754Z,952.65
2018-08-03T00:57:51.653Z,952.65
2018-08-03T00:58:51.556Z,952.65
2018-08-03T00:59:51.470Z,952.66
2018-08-03T01:00:51.380Z,952.60
2018-08-03T01:01:51.314Z,952.57
2018-08-03T01:02:51.206Z,952.56
2018-08-03T01:03:51.116Z,952.57
2018-08-03T01:04:51.027Z,952.56
2018-08-03T01:05:50.937Z,952.57
2018-08-03T01:06:50.875Z,952.57
2018-08-03T01:07:50.764Z,952.56
2018-08-03T01:08:50.677Z,952.57
2018-08-03T01:09:50.587Z,952.60
2018-08-03T01:10:50.501Z,952.52
2018-08-03T01:11:50.436Z,952.51
2018-08-03T01:12:50.325Z,952.54
2018-08-03T01:13:50.236Z,952.56
2018-08-03T01:14:50.149Z,952.50
2018-08-03T01:15:50.063Z,952.53
2018-08-03T01:16:49.973Z,952.51
2018-08-03T01:17:49.904Z,952.56
2018-08-03T01:18:49.796Z,952.52
2018-08-03T01:19:49.707Z,952.54
2018-08-03T01:20:49.622Z,952.57
2018-08-03T01:21:49.535Z,952.51
2018-08-03T01:22:49.469Z,952.51
2018-08-03T01:23:49.358Z,952.52
2018-08-03T01:24:49.269Z,952.49
2018-08-03T01:25:49.183Z,952.49
2018-08-03T01:26:49.094Z,952.47
2018-08-03T01:27:49.026Z,952.50
2018-08-03T01:28:48.917Z,952.45
2018-08-03T01:29:48.828Z,952.47
2018-08-03T01:30:48.745Z,952.46
2018-08-03T01:31:48.656Z,952.50
2018-08-03T01:32:48.589Z,952.49
2018-08-03T01:33:48.479Z,952.49
2018-08-03T01:34:48.393Z,952.55
2018-08-03T01:35:48.303Z,952.51
2018-08-03T01:36:48.215Z,952.52
2018-08-03T01:37:48.152Z,952.50
2018-08-03T01:38:48.039Z,952.48
2018-08-03T01:39:47.955Z,952.49
2018-08-03T01:40:47.861Z,952.46
2018-08-03T01:41:47.779Z,952.47
2018-08-03T01:42:47.711Z,952.45
2018-08-03T01:43:47.600Z,952.47
2018-08-03T01:44:47.511Z,952.45
2018-08-03T01:45:47.424Z,952.47
2018-08-03T01:46:47.336Z,952.46
2018-08-03T01:47:47.271Z,952.44
2018-08-03T01:48:47.163Z,952.44
2018-08-03T01:49:47.079Z,952.42
2018-08-03T01:50:46.983Z,952.42
2018-08-03T01:51:46.896Z,952.40
2018-08-03T01:52:46.829Z,952.36
2018-08-03T01:53:46.725Z,952.35
2018-08-03T01:54:46.631Z,952.38
2018-08-03T01:55:46.544Z,952.36
2018-08-03T01:56:46.457Z,952.37
2018-08-03T01:57:46.393Z,952.38
2018-08-03T01:58:46.280Z,952.37
2018-08-03T01:59:46.194Z,952.35
2018-08-03T02:00:46.105Z,952.36
2018-08-03T02:01:46.022Z,952.43
2018-08-03T02:02:45.955Z,952.42
2018-08-03T02:03:45.843Z,952.42
2018-08-03T02:04:45.754Z,952.43
2018-08-03T02:05:45.665Z,952.44
2018-08-03T02:06:45.575Z,952.43
2018-08-03T02:07:45.492Z,952.40
2018-08-03T02:08:45.425Z,952.41
2018-08-03T02:09:45.315Z,952.41
2018-08-03T02:10:45.228Z,952.40
2018-08-03T02:11:45.137Z,952.38
2018-08-03T02:12:45.050Z,952.38
2018-08-03T02:13:44.982Z,952.36
2018-08-03T02:14:44.872Z,952.41
2018-08-03T02:15:44.780Z,952.38
2018-08-03T02:16:44.695Z,952.35
2018-08-03T02:17:44.607Z,952.35
2018-08-03T02:18:44.541Z,952.32
2018-08-03T02:19:44.427Z,952.33
2018-08-03T02:20:44.351Z,952.31
2018-08-03T02:21:44.254Z,952.31
2018-08-03T02:22:44.182Z,952.29
2018-08-03T02:23:44.095Z,952.26
2018-08-03T02:24:43.989Z,952.25
2018-08-03T02:25:43.900Z,952.26
2018-08-03T02:26:43.812Z,952.25
2018-08-03T02:27:43.728Z,952.20
2018-08-03T02:28:43.656Z,952.23
2018-08-03T02:29:43.544Z,952.22
2018-08-03T02:30:43.456Z,952.23
2018-08-03T02:31:43.370Z,952.20
2018-08-03T02:32:43.282Z,952.22
2018-08-03T02:33:43.215Z,952.20
2018-08-03T02:34:43.124Z,952.18
2018-08-03T02:35:43.015Z,952.18
2018-08-03T02:36:42.931Z,952.21
2018-08-03T02:37:42.843Z,952.22
2018-08-03T02:38:42.774Z,952.20
2018-08-03T02:39:42.663Z,952.22
2018-08-03T02:40:42.575Z,952.16
2018-08-03T02:41:42.488Z,952.17
2018-08-03T02:42:42.397Z,952.14
2018-08-03T02:43:42.334Z,952.11
2018-08-03T02:44:42.222Z,952.12
2018-08-03T02:45:42.136Z,952.10
2018-08-03T02:46:42.046Z,952.14
2018-08-03T02:47:41.956Z,952.12
2018-08-03T02:48:41.887Z,952.14
2018-08-03T02:49:41.778Z,952.16
2018-08-03T02:50:41.785Z,952.12
2018-08-03T02:51:41.604Z,952.12
2018-08-03T02:52:41.514Z,952.11
2018-08-03T02:53:41.426Z,952.12
2018-08-03T02:54:41.361Z,952.12
2018-08-03T02:55:41.252Z,952.11
2018-08-03T02:56:41.159Z,952.11
2018-08-03T02:57:41.070Z,952.10
2018-08-03T02:58:40.985Z,952.14
2018-08-03T02:59:40.917Z,952.11
2018-08-03T03:00:40.808Z,952.14
2018-08-03T03:01:40.721Z,952.11
2018-08-03T03:02:40.628Z,952.17
2018-08-03T03:03:40.543Z,952.17
2018-08-03T03:04:40.566Z,952.20
2018-08-03T03:05:40.364Z,952.19
2018-08-03T03:06:40.275Z,952.19
2018-08-03T03:07:40.186Z,952.19
2018-08-03T03:08:40.102Z,952.19
2018-08-03T03:09:40.034Z,952.20
2018-08-03T03:10:39.924Z,952.17
2018-08-03T03:11:39.932Z,952.19
2018-08-03T03:12:39.746Z,952.20
2018-08-03T03:13:39.655Z,952.21
2018-08-03T03:14:39.592Z,952.27
2018-08-03T03:15:39.479Z,952.25
2018-08-03T03:16:39.391Z,952.25
2018-08-03T03:17:39.301Z,952.26
2018-08-03T03:18:39.305Z,952.26
2018-08-03T03:19:39.174Z,952.23
2018-08-03T03:20:39.036Z,952.25
2018-08-03T03:21:38.946Z,952.24
2018-08-03T03:22:38.860Z,952.16
2018-08-03T03:23:38.770Z,952.16
2018-08-03T03:24:38.704Z,952.15
2018-08-03T03:25:38.686Z,952.16
2018-08-03T03:26:38.507Z,952.18
2018-08-03T03:27:38.427Z,952.18
2018-08-03T03:28:38.326Z,952.16
2018-08-03T03:29:38.257Z,952.18
2018-08-03T03:30:38.150Z,952.18
2018-08-03T03:31:38.062Z,952.17
2018-08-03T03:32:38.132Z,952.14
2018-08-03T03:33:37.890Z,952.16
2018-08-03T03:34:37.824Z,952.17
2018-08-03T03:35:37.708Z,952.14
2018-08-03T03:36:37.619Z,952.14
2018-08-03T03:37:37.532Z,952.12
2018-08-03T03:38:37.445Z,952.10
2018-08-03T03:39:37.446Z,952.12
2018-08-03T03:40:37.289Z,952.13
2018-08-03T03:41:37.176Z,952.13
2018-08-03T03:42:37.089Z,952.15
2018-08-03T03:43:36.995Z,952.14
2018-08-03T03:44:36.912Z,952.13
2018-08-03T03:45:36.915Z,952.09
2018-08-03T03:46:36.828Z,952.12
2018-08-03T03:47:36.643Z,952.11
2018-08-03T03:48:36.556Z,952.09
2018-08-03T03:49:36.464Z,952.08
2018-08-03T03:50:36.400Z,952.14
2018-08-03T03:51:36.293Z,952.10
2018-08-03T03:52:36.200Z,952.12
2018-08-03T03:53:36.218Z,952.10
2018-08-03T03:54:36.024Z,952.10
2018-08-03T03:55:35.955Z,952.12
2018-08-03T03:56:35.846Z,952.15
2018-08-03T03:57:35.762Z,952.15
2018-08-03T03:58:35.667Z,952.18
2018-08-03T03:59:35.604Z,952.20
2018-08-03T04:00:35.625Z,952.19
2018-08-03T04:01:35.402Z,952.17
2018-08-03T04:02:35.315Z,952.17
2018-08-03T04:03:35.225Z,952.15
2018-08-03T04:04:35.133Z,952.14
2018-08-03T04:05:35.070Z,952.17
2018-08-03T04:06:34.961Z,952.19
2018-08-03T04:07:34.963Z,952.20
2018-08-03T04:08:34.784Z,952.19
2018-08-03T04:09:34.693Z,952.25
2018-08-03T04:10:34.625Z,952.22
2018-08-03T04:11:34.515Z,952.30
2018-08-03T04:12:34.427Z,952.26
2018-08-03T04:13:34.339Z,952.30
2018-08-03T04:14:34.246Z,952.30
2018-08-03T04:15:34.181Z,952.28
2018-08-03T04:16:34.072Z,952.31
2018-08-03T04:17:33.983Z,952.32
2018-08-03T04:18:33.891Z,952.32
2018-08-03T04:19:33.802Z,952.30
2018-08-03T04:20:33.749Z,952.38
2018-08-03T04:21:33.726Z,952.36
2018-08-03T04:22:33.540Z,952.35
2018-08-03T04:23:33.446Z,952.36
2018-08-03T04:24:33.360Z,952.38
2018-08-03T04:25:33.278Z,952.35
2018-08-03T04:26:33.208Z,952.35
2018-08-03T04:27:33.218Z,952.34
2018-08-03T04:28:33.005Z,952.33
2018-08-03T04:29:32.917Z,952.35
2018-08-03T04:30:32.833Z,952.34
2018-08-03T04:31:32.760Z,952.38
2018-08-03T04:32:32.650Z,952.37
2018-08-03T04:33:32.564Z,952.42
2018-08-03T04:34:32.475Z,952.42
2018-08-03T04:35:32.387Z,952.44
2018-08-03T04:36:32.320Z,952.47
2018-08-03T04:37:32.211Z,952.46
2018-08-03T04:38:32.119Z,952.46
2018-08-03T04:39:32.033Z,952.45
2018-08-03T04:40:31.945Z,952.49
2018-08-03T04:41:31.885Z,952.49
2018-08-03T04:42:31.837Z,952.49
2018-08-03T04:43:31.678Z,952.49
2018-08-03T04:44:31.592Z,952.52
2018-08-03T04:45:31.501Z,952.54
2018-08-03T04:46:31.447Z,952.54
2018-08-03T04:47:31.326Z,952.56
2018-08-03T04:48:31.257Z,952.61
2018-08-03T04:49:31.152Z,952.60
2018-08-03T04:50:31.061Z,952.65
2018-08-03T04:51:30.995Z,952.65
2018-08-03T04:52:30.885Z,952.70
2018-08-03T04:53:30.796Z,952.71
2018-08-03T04:54:30.710Z,952.67
2018-08-03T04:55:30.619Z,952.69
2018-08-03T04:56:30.555Z,952.71
2018-08-03T04:57:30.444Z,952.75
2018-08-03T04:58:30.357Z,952.74
2018-08-03T04:59:30.266Z,952.72
2018-08-03T05:00:30.180Z,952.73
2018-08-03T05:01:30.113Z,952.73
2018-08-03T05:02:30.006Z,952.75
2018-08-03T05:03:29.917Z,952.73
2018-08-03T05:04:29.828Z,952.72
2018-08-03T05:05:29.742Z,952.76
2018-08-03T05:06:29.678Z,952.75
2018-08-03T05:07:29.565Z,952.77
2018-08-03T05:08:29.478Z,952.73
2018-08-03T05:09:29.391Z,952.77
2018-08-03T05:10:29.305Z,952.78
2018-08-03T05:11:29.216Z,952.77
2018-08-03T05:12:29.150Z,952.79
2018-08-03T05:13:29.047Z,952.78
2018-08-03T05:14:28.962Z,952.77
2018-08-03T05:15:28.908Z,952.75
2018-08-03T05:16:28.780Z,952.77
2018-08-03T05:17:28.715Z,952.80
2018-08-03T05:18:28.605Z,952.81
2018-08-03T05:19:28.516Z,952.86
2018-08-03T05:20:28.430Z,952.87
2018-08-03T05:21:28.344Z,952.87
2018-08-03T05:22:28.281Z,952.90
2018-08-03T05:23:28.171Z,952.93
2018-08-03T05:24:28.085Z,952.95
2018-08-03T05:25:27.995Z,952.94
2018-08-03T05:26:27.911Z,952.98
2018-08-03T05:27:27.845Z,952.96
2018-08-03T05:28:27.736Z,952.93
2018-08-03T05:29:27.649Z,952.90
2018-08-03T05:30:27.655Z,952.91
2018-08-03T05:31:27.473Z,952.91
2018-08-03T05:32:27.410Z,952.93
2018-08-03T05:33:27.304Z,952.95
2018-08-03T05:34:27.215Z,952.98
2018-08-03T05:35:27.131Z,952.98
2018-08-03T05:36:27.040Z,953.04
2018-08-03T05:37:27.090Z,953.05
2018-08-03T05:38:26.870Z,953.05
2018-08-03T05:39:26.785Z,953.07
2018-08-03T05:40:26.695Z,953.07
2018-08-03T05:41:26.609Z,953.07
2018-08-03T05:42:26.586Z,953.09
2018-08-03T05:43:26.437Z,953.10
2018-08-03T05:44:26.446Z,953.10
2018-08-03T05:45:26.293Z,953.17
2018-08-03T05:46:26.177Z,953.15
2018-08-03T05:47:26.112Z,953.14
2018-08-03T05:48:26.007Z,953.15
2018-08-03T05:49:25.918Z,953.15
2018-08-03T05:50:25.833Z,953.15
2018-08-03T05:51:25.842Z,953.15
2018-08-03T05:52:25.803Z,953.12
2018-08-03T05:53:25.575Z,953.08
2018-08-03T05:54:25.489Z,953.12
2018-08-03T05:55:25.403Z,953.14
2018-08-03T05:56:25.315Z,953.13
2018-08-03T05:57:25.251Z,953.12
2018-08-03T05:58:25.265Z,953.06
2018-08-03T05:59:25.055Z,953.13
2018-08-03T06:00:24.975Z,953.13
2018-08-03T06:01:24.886Z,953.13
2018-08-03T06:02:24.801Z,953.15
2018-08-03T06:03:24.733Z,953.17
2018-08-03T06:04:24.626Z,953.21
2018-08-03T06:05:24.637Z,953.19
2018-08-03T06:06:24.455Z,953.17
2018-08-03T06:07:24.368Z,953.26
2018-08-03T06:08:24.305Z,953.96
2018-08-03T06:09:24.200Z,954.26
2018-08-03T06:10:24.110Z,953.89
2018-08-03T06:11:24.026Z,953.70
2018-08-03T06:12:24.035Z,953.45
2018-08-03T06:13:23.880Z,953.31
2018-08-03T06:14:23.772Z,953.38
2018-08-03T06:15:23.682Z,953.32
2018-08-03T06:16:23.600Z,953.24
2018-08-03T06:17:23.513Z,953.22
2018-08-03T06:18:23.450Z,953.17
2018-08-03T06:19:23.454Z,953.13
2018-08-03T06:20:23.258Z,953.09
2018-08-03T06:21:23.177Z,953.12
2018-08-03T06:22:23.092Z,953.12
2018-08-03T06:23:23.023Z,953.12
2018-08-03T06:24:22.920Z,953.13
2018-08-03T06:25:22.833Z,953.15
2018-08-03T06:26:22.842Z,953.19
2018-08-03T06:27:22.663Z,953.22
2018-08-03T06:28:22.609Z,953.28
2018-08-03T06:29:22.494Z,953.47
2018-08-03T06:30:22.410Z,953.60
2018-08-03T06:31:22.339Z,953.58
2018-08-03T06:32:22.242Z,953.55
2018-08-03T06:33:22.274Z,953.53
2018-08-03T06:34:22.071Z,953.43
2018-08-03T06:35:22.022Z,953.42
2018-08-03T06:36:21.901Z,953.42
2018-08-03T06:37:21.818Z,953.40
2018-08-03T06:38:21.764Z,953.46
2018-08-03T06:39:21.647Z,953.43
2018-08-03T06:40:21.656Z,953.48
2018-08-03T06:41:21.480Z,953.48
2018-08-03T06:42:21.407Z,953.50
2018-08-03T06:43:21.311Z,953.50
2018-08-03T06:44:21.249Z,953.54
2018-08-03T06:45:21.142Z,953.83
2018-08-03T06:46:21.183Z,954.67
2018-08-03T06:47:20.976Z,955.08
2018-08-03T06:48:20.939Z,955.30
2018-08-03T06:49:20.825Z,955.47
2018-08-03T06:50:20.722Z,955.66
2018-08-03T06:51:20.636Z,955.64
2018-08-03T06:52:20.549Z,955.77
2018-08-03T06:53:20.465Z,955.91
2018-08-03T06:54:20.409Z,955.96
2018-08-03T06:55:20.300Z,956.05
2018-08-03T06:56:20.216Z,955.96
2018-08-03T06:57:20.137Z,956.23
2018-08-03T06:58:20.050Z,956.36
2018-08-03T06:59:19.993Z,956.23
2018-08-03T07:00:19.883Z,956.37
2018-08-03T07:01:19.800Z,956.39
2018-08-03T07:02:19.718Z,956.64
2018-08-03T07:03:19.635Z,956.96
2018-08-03T07:04:19.630Z,957.11
2018-08-03T07:05:19.470Z,957.23
2018-08-03T07:06:19.393Z,957.33
2018-08-03T07:07:19.306Z,957.66
2018-08-03T07:08:19.221Z,958.10
2018-08-03T07:09:19.164Z,958.56
2018-08-03T07:10:19.063Z,958.24
2018-08-03T07:11:18.979Z,958.42
2018-08-03T07:12:18.896Z,959.99
2018-08-03T07:13:18.817Z,960.68
2018-08-03T07:14:18.757Z,960.87
2018-08-03T07:15:18.658Z,960.58
2018-08-03T07:16:18.574Z,960.32
2018-08-03T07:17:18.495Z,960.49
2018-08-03T07:18:18.415Z,962.67
2018-08-03T07:19:18.351Z,965.66
2018-08-03T07:20:18.393Z,968.15
2018-08-03T07:21:18.171Z,966.36
2018-08-03T07:22:18.093Z,962.58
2018-08-03T07:23:18.010Z,959.16
2018-08-03T07:24:17.955Z,957.33
2018-08-03T07:25:17.852Z,956.90
2018-08-03T07:26:17.770Z,956.87
2018-08-03T07:27:17.693Z,956.75
2018-08-03T07:28:17.623Z,956.63
2018-08-03T07:29:17.556Z,956.78
2018-08-03T07:30:17.452Z,957.10
2018-08-03T07:31:17.378Z,957.35
2018-08-03T07:32:17.293Z,957.16
2018-08-03T07:33:17.215Z,956.86
2018-08-03T07:34:17.156Z,956.62
2018-08-03T07:35:17.060Z,956.54
2018-08-03T07:36:16.983Z,956.56
2018-08-03T07:37:16.899Z,956.74
2018-08-03T07:38:16.819Z,956.91
2018-08-03T07:39:16.742Z,956.80
2018-08-03T07:40:16.688Z,956.44
2018-08-03T07:41:16.586Z,956.23
2018-08-03T07:42:16.505Z,956.16
2018-08-03T07:43:16.489Z,956.15
2018-08-03T07:44:16.363Z,956.16
2018-08-03T07:45:16.293Z,956.17
2018-08-03T07:46:16.196Z,956.17
2018-08-03T07:47:16.112Z,956.18
2018-08-03T07:48:16.037Z,956.23
2018-08-03T07:49:15.958Z,956.28
2018-08-03T07:50:15.901Z,956.38
2018-08-03T07:51:15.803Z,956.68
2018-08-03T07:52:15.730Z,956.92
2018-08-03T07:53:15.652Z,956.90
2018-08-03T07:54:15.568Z,957.22
2018-08-03T07:55:15.515Z,957.70
2018-08-03T07:56:15.413Z,957.69
2018-08-03T07:57:15.337Z,957.25
2018-08-03T07:58:15.262Z,957.08
2018-08-03T07:59:15.183Z,957.26
2018-08-03T08:00:15.130Z,957.43
2018-08-03T08:01:15.029Z,957.33
2018-08-03T08:02:14.954Z,957.06
2018-08-03T08:03:14.905Z,957.01
2018-08-03T08:04:14.796Z,956.98
2018-08-03T08:05:14.742Z,956.97
2018-08-03T08:06:14.699Z,956.82
2018-08-03T08:07:14.574Z,956.74
2018-08-03T08:08:14.490Z,956.74
2018-08-03T08:09:14.413Z,956.66
2018-08-03T08:10:14.355Z,956.48
2018-08-03T08:11:14.255Z,956.35
2018-08-03T08:12:14.186Z,956.39
2018-08-03T08:13:14.105Z,956.21
2018-08-03T08:14:14.027Z,955.57
2018-08-03T08:15:14.006Z,955.90
2018-08-03T08:16:13.918Z,956.16
2018-08-03T08:17:13.795Z,955.89
2018-08-03T08:18:13.854Z,955.75
2018-08-03T08:19:13.643Z,955.74
2018-08-03T08:20:13.566Z,955.71
2018-08-03T08:21:13.516Z,955.64
2018-08-03T08:22:13.417Z,955.52
2018-08-03T08:23:13.337Z,955.58
2018-08-03T08:24:13.261Z,955.48
2018-08-03T08:25:13.282Z,955.42
2018-08-03T08:26:13.156Z,955.34
2018-08-03T08:27:13.030Z,955.27
2018-08-03T08:28:12.959Z,955.18
2018-08-03T08:29:12.879Z,955.04
2018-08-03T08:30:12.805Z,954.99
2018-08-03T08:31:12.748Z,954.89
2018-08-03T08:32:12.742Z,954.78
2018-08-03T08:33:12.578Z,954.76
2018-08-03T08:34:12.500Z,954.75
2018-08-03T08:35:12.423Z,954.75
2018-08-03T08:36:12.368Z,954.72
2018-08-03T08:37:12.275Z,954.63
2018-08-03T08:38:12.196Z,954.59
2018-08-03T08:39:12.214Z,954.52
2018-08-03T08:40:12.044Z,954.49
2018-08-03T08:41:11.996Z,954.51
2018-08-03T08:42:11.891Z,954.43
2018-08-03T08:43:11.815Z,954.46
2018-08-03T08:44:11.741Z,954.43
2018-08-03T08:45:11.665Z,954.40
2018-08-03T08:46:11.702Z,954.37
2018-08-03T08:47:11.511Z,954.36
2018-08-03T08:48:11.439Z,954.34
2018-08-03T08:49:11.419Z,954.31
2018-08-03T08:50:11.289Z,954.23
2018-08-03T08:51:11.234Z,954.22
2018-08-03T08:52:11.138Z,954.24
2018-08-03T08:53:11.226Z,954.23
2018-08-03T08:54:10.986Z,954.22
2018-08-03T08:55:10.909Z,954.20
2018-08-03T08:56:10.857Z,954.22
2018-08-03T08:57:10.761Z,954.23
2018-08-03T08:58:10.685Z,954.22
2018-08-03T08:59:10.609Z,954.20
2018-08-03T09:00:10.625Z,954.17
2018-08-03T09:01:10.539Z,954.15
2018-08-03T09:02:10.384Z,954.14
2018-08-03T09:03:10.308Z,954.13
2018-08-03T09:04:10.234Z,954.04
2018-08-03T09:05:10.157Z,954.05
2018-08-03T09:06:10.099Z,954.00
2018-08-03T09:07:10.123Z,954.00
2018-08-03T09:08:09.931Z,954.04
2018-08-03T09:09:09.858Z,953.77
2018-08-03T09:10:09.785Z,953.29
2018-08-03T09:11:09.710Z,953.29
2018-08-03T09:12:09.657Z,953.26
2018-08-03T09:13:09.714Z,953.18
2018-08-03T09:14:09.487Z,953.19
2018-08-03T09:15:09.408Z,953.54
2018-08-03T09:16:09.334Z,953.46
2018-08-03T09:17:09.278Z,953.92
2018-08-03T09:18:09.763Z,953.97
2018-08-03T09:19:09.109Z,953.99
2018-08-03T09:20:09.033Z,953.84
2018-08-03T09:21:09.048Z,954.00
2018-08-03T09:22:08.923Z,953.21
2018-08-03T09:23:08.805Z,953.16
2018-08-03T09:24:08.730Z,953.19
2018-08-03T09:25:08.660Z,953.15
2018-08-03T09:26:08.583Z,953.19
2018-08-03T09:27:08.528Z,953.20
2018-08-03T09:28:08.520Z,953.18
2018-08-03T09:29:08.358Z,953.18
2018-08-03T09:30:08.278Z,953.19
2018-08-03T09:31:08.299Z,953.12
2018-08-03T09:32:08.149Z,953.19
2018-08-03T09:33:08.055Z,953.26
2018-08-03T09:34:07.974Z,953.61
2018-08-03T09:35:07.899Z,953.30
2018-08-03T09:36:07.821Z,953.27
2018-08-03T09:37:07.769Z,954.00
2018-08-03T09:38:07.670Z,953.96
2018-08-03T09:39:07.591Z,953.95
2018-08-03T09:40:07.519Z,953.98
2018-08-03T09:41:07.441Z,952.96
2018-08-03T09:42:07.399Z,952.91
2018-08-03T09:43:07.293Z,952.88
2018-08-03T09:44:07.211Z,952.83
2018-08-03T09:45:07.138Z,952.80
2018-08-03T09:46:07.061Z,952.76
2018-08-03T09:47:07.008Z,952.78
2018-08-03T09:48:06.906Z,952.76
2018-08-03T09:49:06.855Z,952.71
2018-08-03T09:50:06.755Z,952.73
2018-08-03T09:51:06.675Z,952.74
2018-08-03T09:52:06.625Z,952.75
2018-08-03T09:53:06.523Z,952.71
2018-08-03T09:54:06.449Z,952.71
2018-08-03T09:55:06.402Z,952.68
2018-08-03T09:56:06.292Z,952.67
2018-08-03T09:57:06.215Z,952.66
2018-08-03T09:58:06.162Z,952.72
2018-08-03T09:59:06.062Z,952.69
2018-08-03T10:00:05.983Z,952.72
2018-08-03T10:01:05.906Z,952.64
2018-08-03T10:02:05.831Z,952.67
2018-08-03T10:03:05.773Z,952.69
2018-08-03T10:04:05.674Z,952.67
2018-08-03T10:05:05.592Z,952.74
2018-08-03T10:06:05.515Z,952.76
2018-08-03T10:07:05.437Z,952.75
2018-08-03T10:08:05.380Z,952.74
2018-08-03T10:09:05.279Z,952.75
2018-08-03T10:10:05.202Z,952.77
2018-08-03T10:11:05.120Z,952.75
2018-08-03T10:12:05.043Z,952.76
2018-08-03T10:13:04.985Z,952.73
2018-08-03T10:14:04.886Z,952.78
2018-08-03T10:15:04.799Z,952.71
2018-08-03T10:16:04.721Z,952.76
2018-08-03T10:17:04.643Z,952.73
2018-08-03T10:18:04.583Z,952.76
2018-08-03T10:19:04.481Z,952.72
2018-08-03T10:20:04.400Z,952.77
2018-08-03T10:21:04.322Z,952.76
2018-08-03T10:22:04.244Z,952.76
2018-08-03T10:23:04.178Z,952.75
2018-08-03T10:24:04.076Z,952.78
2018-08-03T10:25:03.995Z,952.78
2018-08-03T10:26:03.914Z,952.85
2018-08-03T10:27:03.832Z,952.83
2018-08-03T10:28:03.772Z,952.82
2018-08-03T10:29:03.669Z,952.80
2018-08-03T10:30:03.589Z,952.84
2018-08-03T10:31:03.507Z,952.85
2018-08-03T10:32:03.423Z,952.82
2018-08-03T10:33:03.341Z,952.83
2018-08-03T10:34:03.299Z,952.80
2018-08-03T10:35:03.180Z,952.82
2018-08-03T10:36:03.096Z,952.81
2018-08-03T10:37:03.108Z,952.79
2018-08-03T10:38:02.931Z,952.79
2018-08-03T10:39:02.868Z,952.79
2018-08-03T10:40:02.763Z,952.77
2018-08-03T10:41:02.681Z,952.78
2018-08-03T10:42:02.599Z,952.76
2018-08-03T10:43:02.563Z,952.77
2018-08-03T10:44:02.549Z,952.84
2018-08-03T10:45:02.355Z,952.77
2018-08-03T10:46:02.271Z,952.83
2018-08-03T10:47:02.218Z,952.89
2018-08-03T10:48:02.110Z,952.76
2018-08-03T10:49:02.049Z,952.74
2018-08-03T10:50:01.942Z,952.75
2018-08-03T10:51:01.950Z,952.77
2018-08-03T10:52:01.779Z,952.77
2018-08-03T10:53:01.698Z,952.74
2018-08-03T10:54:01.638Z,952.94
2018-08-03T10:55:01.542Z,953.12
2018-08-03T10:56:01.450Z,953.08
2018-08-03T10:57:01.370Z,953.21
2018-08-03T10:58:01.386Z,953.19
2018-08-03T10:59:01.232Z,953.17
2018-08-03T11:00:01.125Z,953.16
2018-08-03T11:01:01.046Z,953.16
2018-08-03T11:02:00.965Z,953.12
2018-08-03T11:03:00.884Z,953.14
2018-08-03T11:04:00.832Z,953.04
2018-08-03T11:05:00.823Z,953.02
2018-08-03T11:06:00.650Z,953.03
2018-08-03T11:07:00.595Z,953.04
2018-08-03T11:08:00.491Z,953.03
2018-08-03T11:09:00.436Z,953.06
2018-08-03T11:10:00.329Z,953.05
2018-08-03T11:11:00.250Z,953.04
2018-08-03T11:12:00.273Z,952.85
2018-08-03T11:13:00.099Z,952.93
2018-08-03T11:14:00.087Z,952.92
2018-08-03T11:14:59.942Z,952.93
2018-08-03T11:15:59.866Z,952.93
2018-08-03T11:16:59.799Z,952.90
2018-08-03T11:17:59.712Z,952.91
2018-08-03T11:18:59.730Z,952.94
2018-08-03T11:19:59.575Z,952.96
2018-08-03T11:20:59.481Z,952.85
2018-08-03T11:21:59.403Z,952.89
2018-08-03T11:22:59.330Z,952.88
2018-08-03T11:23:59.297Z,952.87
2018-08-03T11:24:59.173Z,952.82
2018-08-03T11:25:59.194Z,952.82
2018-08-03T11:26:59.022Z,952.81
2018-08-03T11:27:58.948Z,952.82
2018-08-03T11:28:58.873Z,952.78
2018-08-03T11:29:58.819Z,952.78
2018-08-03T11:30:58.720Z,952.79
2018-08-03T11:31:58.646Z,952.77
2018-08-03T11:32:58.673Z,952.73
2018-08-03T11:33:58.500Z,952.74
2018-08-03T11:34:58.445Z,952.70
2018-08-03T11:35:58.347Z,952.71
2018-08-03T11:36:58.272Z,952.70
2018-08-03T11:37:58.201Z,952.67
2018-08-03T11:38:58.124Z,952.65
2018-08-03T11:39:58.166Z,952.66
2018-08-03T11:40:57.980Z,952.62
2018-08-03T11:41:57.904Z,952.62
2018-08-03T11:42:57.828Z,952.61
2018-08-03T11:43:57.754Z,952.58
2018-08-03T11:44:57.704Z,952.57
2018-08-03T11:45:57.702Z,952.50
2018-08-03T11:46:57.535Z,952.51
2018-08-03T11:47:57.461Z,952.51
2018-08-03T11:48:57.395Z,952.47
2018-08-03T11:49:57.336Z,952.46
2018-08-03T11:50:57.239Z,952.47
2018-08-03T11:51:57.167Z,952.47
2018-08-03T11:52:57.092Z,952.47
2018-08-03T11:53:57.165Z,952.45
2018-08-03T11:54:56.968Z,952.41
2018-08-03T11:55:56.876Z,952.42
2018-08-03T11:56:56.802Z,952.28
2018-08-03T11:57:56.735Z,952.03
2018-08-03T11:58:56.654Z,952.02
2018-08-03T11:59:56.608Z,952.02
2018-08-03T12:00:56.543Z,952.00
2018-08-03T12:01:56.480Z,952.04
2018-08-03T12:02:56.363Z,952.02
2018-08-03T12:03:56.288Z,952.00
2018-08-03T12:04:56.218Z,952.02
2018-08-03T12:05:56.160Z,952.01
2018-08-03T12:06:56.064Z,952.06
2018-08-03T12:07:55.989Z,952.07
2018-08-03T12:08:55.913Z,952.12
2018-08-03T12:09:55.839Z,952.09
2018-08-03T12:10:55.783Z,952.12
2018-08-03T12:11:55.684Z,952.04
2018-08-03T12:12:55.610Z,952.03
2018-08-03T12:13:55.537Z,952.01
2018-08-03T12:14:55.456Z,951.98
2018-08-03T12:15:55.402Z,951.97
2018-08-03T12:16:55.304Z,951.95
2018-08-03T12:17:55.279Z,951.95
2018-08-03T12:18:55.170Z,952.00
2018-08-03T12:19:55.074Z,952.02
2018-08-03T12:20:55.019Z,952.02
2018-08-03T12:21:54.918Z,951.98
2018-08-03T12:22:54.837Z,952.01
2018-08-03T12:23:54.790Z,952.01
2018-08-03T12:24:54.713Z,952.01
2018-08-03T12:25:54.627Z,951.96
2018-08-03T12:26:54.528Z,952.02
2018-08-03T12:27:54.450Z,951.97